createdAt,value
2019-05-23T00:01:22.368Z,97549.65
2019-05-23T00:04:31.048Z,97549.39
2019-05-23T00:07:31.237Z,97553.89
2019-05-23T00:10:37.139Z,97550.70
2019-05-23T00:13:15.862Z,97542.50
2019-05-23T00:15:51.034Z,97549.39
2019-05-23T00:18:24.607Z,97547.55
2019-05-23T00:20:59.041Z,97552.24
2019-05-23T00:23:32.421Z,97539.59
2019-05-23T00:26:05.199Z,97539.80
2019-05-23T00:28:39.250Z,97537.19
2019-05-23T00:31:21.469Z,97540.33
2019-05-23T00:33:53.504Z,97532.69
2019-05-23T00:36:26.329Z,97542.95
2019-05-23T00:38:58.614Z,97531.27
2019-05-23T00:41:32.587Z,97525.80
2019-05-23T00:44:05.615Z,97529.52
2019-05-23T00:46:38.223Z,97526.34
2019-05-23T00:49:09.968Z,97527.69
2019-05-23T00:51:43.878Z,97517.61
2019-05-23T00:54:17.243Z,97524.23
2019-05-23T00:56:50.138Z,97523.67
2019-05-23T00:59:27.185Z,97524.73
2019-05-23T01:01:57.715Z,97524.52
2019-05-23T01:04:32.375Z,97524.22
2019-05-23T01:07:07.077Z,97529.20
2019-05-23T01:09:39.599Z,97522.63
2019-05-23T01:12:12.902Z,97522.91
2019-05-23T01:14:44.788Z,97515.77
2019-05-23T01:17:18.976Z,97512.84
2019-05-23T01:19:52.249Z,97517.61
2019-05-23T01:22:24.091Z,97511.76
2019-05-23T01:24:56.518Z,97514.44
2019-05-23T01:27:28.481Z,97512.84
2019-05-23T01:30:00.506Z,97515.81
2019-05-23T01:32:44.134Z,97512.41
2019-05-23T01:35:18.156Z,97517.19
2019-05-23T01:37:51.478Z,97514.27
2019-05-23T01:40:24.948Z,97510.08
2019-05-23T01:42:58.825Z,97514.89
2019-05-23T01:45:30.891Z,97516.74
2019-05-23T01:48:02.329Z,97509.34
2019-05-23T01:50:34.470Z,97512.52
2019-05-23T01:53:07.530Z,97507.74
2019-05-23T01:55:39.844Z,97506.69
2019-05-23T01:58:12.135Z,97505.36
2019-05-23T02:00:45.575Z,97505.10
2019-05-23T02:03:16.995Z,97513.04
2019-05-23T02:05:48.417Z,97514.86
2019-05-23T02:08:20.040Z,97502.98
2019-05-23T02:10:52.571Z,97512.81
2019-05-23T02:13:24.060Z,97505.67
2019-05-23T02:15:57.535Z,97504.88
2019-05-23T02:18:29.631Z,97510.17
2019-05-23T02:21:01.222Z,97504.09
2019-05-23T02:23:34.609Z,97509.64
2019-05-23T02:26:07.712Z,97507.03
2019-05-23T02:28:40.130Z,97507.56
2019-05-23T02:31:12.648Z,97500.16
2019-05-23T02:33:45.469Z,97499.06
2019-05-23T02:36:17.943Z,97499.36
2019-05-23T02:38:53.354Z,97494.34
2019-05-23T02:41:33.266Z,97493.28
2019-05-23T02:44:06.491Z,97492.71
2019-05-23T02:46:42.453Z,97495.93
2019-05-23T02:49:16.374Z,97492.48
2019-05-23T02:51:48.994Z,97500.45
2019-05-23T03:13:12.850Z,97478.73
2019-05-23T03:16:00.797Z,97476.12
2019-05-23T03:18:43.622Z,97473.73
2019-05-23T03:21:22.559Z,97477.93
2019-05-23T03:23:59.172Z,97477.17
2019-05-23T03:26:37.522Z,97475.05
2019-05-23T03:29:11.324Z,97472.64
2019-05-23T03:31:48.322Z,97475.28
2019-05-23T03:34:21.909Z,97469.20
2019-05-23T03:36:54.044Z,97470.52
2019-05-23T03:39:26.570Z,97473.69
2019-05-23T03:41:58.255Z,97477.39
2019-05-23T03:48:03.980Z,97472.64
2019-05-23T03:50:36.868Z,97474.27
2019-05-23T03:53:11.121Z,97476.38
2019-05-23T03:55:43.123Z,97477.41
2019-05-23T03:58:15.124Z,97477.98
2019-05-23T04:00:58.417Z,97482.51
2019-05-23T04:03:30.595Z,97478.45
2019-05-23T04:06:03.720Z,97480.00
2019-05-23T04:08:34.907Z,97479.70
2019-05-23T04:11:08.482Z,97483.61
2019-05-23T04:13:41.350Z,97489.97
2019-05-23T04:16:13.201Z,97486.63
2019-05-23T04:18:45.168Z,97482.69
2019-05-23T04:21:18.456Z,97491.42
2019-05-23T04:23:49.754Z,97490.05
2019-05-23T04:26:23.054Z,97487.95
2019-05-23T04:28:55.624Z,97488.73
2019-05-23T04:31:30.728Z,97494.90
2019-05-23T04:34:02.843Z,97495.93
2019-05-23T04:36:36.074Z,97495.89
2019-05-23T04:39:11.421Z,97503.78
2019-05-23T04:41:44.986Z,97504.04
2019-05-23T04:44:18.358Z,97500.03
2019-05-23T04:46:50.483Z,97503.95
2019-05-23T04:49:23.310Z,97514.23
2019-05-23T04:51:55.397Z,97510.74
2019-05-23T04:54:27.715Z,97518.27
2019-05-23T04:57:01.657Z,97512.78
2019-05-23T04:59:33.005Z,97512.65
2019-05-23T05:02:05.625Z,97515.85
2019-05-23T05:04:37.636Z,97516.37
2019-05-23T05:07:09.609Z,97516.83
2019-05-23T05:09:41.591Z,97521.52
2019-05-23T05:12:13.345Z,97517.92
2019-05-23T05:14:45.424Z,97520.95
2019-05-23T05:17:18.570Z,97524.86
2019-05-23T05:19:50.334Z,97516.87
2019-05-23T05:22:22.793Z,97526.14
2019-05-23T05:24:54.293Z,97523.09
2019-05-23T05:27:26.755Z,97529.98
2019-05-23T05:29:58.953Z,97529.80
2019-05-23T05:32:44.005Z,97529.71
2019-05-23T05:35:06.057Z,97531.92
2019-05-23T05:37:37.753Z,97533.41
2019-05-23T05:40:10.893Z,97532.60
2019-05-23T05:42:44.138Z,97535.26
2019-05-23T05:45:16.590Z,97536.32
2019-05-23T05:47:49.184Z,97543.61
2019-05-23T05:50:23.657Z,97537.94
2019-05-23T05:52:55.633Z,97546.27
2019-05-23T05:55:29.377Z,97549.34
2019-05-23T05:58:00.744Z,97550.31
2019-05-23T06:00:48.163Z,97543.05
2019-05-23T06:03:23.919Z,97548.73
2019-05-23T06:05:55.579Z,97543.14
2019-05-23T06:08:38.907Z,97547.05
2019-05-23T06:11:13.232Z,97545.97
2019-05-23T06:13:45.265Z,97548.58
2019-05-23T06:16:16.815Z,97557.88
2019-05-23T06:18:49.686Z,97561.13
2019-05-23T06:21:26.190Z,97560.39
2019-05-23T06:23:58.306Z,97559.06
2019-05-23T06:26:30.417Z,97556.27
2019-05-23T06:29:02.326Z,97557.56
2019-05-23T06:31:36.635Z,97561.47
2019-05-23T06:34:09.067Z,97557.48
2019-05-23T06:36:41.225Z,97562.75
2019-05-23T06:39:13.831Z,97565.55
2019-05-23T06:41:46.787Z,97562.02
2019-05-23T06:44:20.396Z,97553.86
2019-05-23T06:46:54.416Z,97558.19
2019-05-23T06:49:27.366Z,97560.68
2019-05-23T06:52:00.367Z,97559.88
2019-05-23T06:54:35.602Z,97572.45
2019-05-23T06:57:08.101Z,97571.88
2019-05-23T06:59:40.903Z,97572.56
2019-05-23T07:02:14.060Z,97568.21
2019-05-23T07:04:47.258Z,97576.07
2019-05-23T07:07:21.745Z,97578.94
2019-05-23T07:09:53.506Z,97573.01
2019-05-23T07:12:28.908Z,97568.63
2019-05-23T07:15:01.273Z,97574.03
2019-05-23T07:17:33.614Z,97570.81
2019-05-23T07:20:10.343Z,97558.56
2019-05-23T07:22:42.545Z,97562.15
2019-05-23T07:25:14.869Z,97562.47
2019-05-23T07:27:46.372Z,97569.23
2019-05-23T07:30:27.195Z,97565.27
2019-05-23T07:32:59.336Z,97561.59
2019-05-23T07:35:31.719Z,97566.73
2019-05-23T07:38:03.620Z,97557.22
2019-05-23T07:40:37.541Z,97558.88
2019-05-23T07:43:10.122Z,97560.91
2019-05-23T07:45:54.973Z,97551.73
2019-05-23T07:48:28.257Z,97551.42
2019-05-23T07:51:01.010Z,97549.27
2019-05-23T07:53:38.429Z,97547.27
2019-05-23T07:56:16.276Z,97549.81
2019-05-23T07:58:48.462Z,97543.52
2019-05-23T08:01:24.673Z,97544.33
2019-05-23T08:03:57.232Z,97545.95
2019-05-23T08:06:28.986Z,97551.28
2019-05-23T08:09:01.381Z,97550.59
2019-05-23T08:11:34.142Z,97550.36
2019-05-23T08:14:12.055Z,97544.53
2019-05-23T08:16:43.632Z,97545.92
2019-05-23T08:19:19.375Z,97549.44
2019-05-23T08:21:48.918Z,97546.14
2019-05-23T08:24:22.242Z,97546.23
2019-05-23T08:26:55.880Z,97549.25
2019-05-23T08:29:28.379Z,97546.67
2019-05-23T08:32:01.550Z,97539.81
2019-05-23T08:34:41.673Z,97544.56
2019-05-23T08:37:08.808Z,97543.39
2019-05-23T08:39:41.047Z,97543.88
2019-05-23T08:42:13.004Z,97544.08
2019-05-23T08:44:44.908Z,97552.78
2019-05-23T08:47:17.715Z,97548.27
2019-05-23T08:49:48.934Z,97550.82
2019-05-23T08:52:20.483Z,97545.25
2019-05-23T08:54:56.672Z,97547.39
2019-05-23T08:57:30.869Z,97540.65
2019-05-23T09:00:10.676Z,97555.14
2019-05-23T09:02:44.364Z,97547.84
2019-05-23T09:05:17.334Z,97544.45
2019-05-23T09:07:49.417Z,97543.03
2019-05-23T09:10:22.451Z,97540.55
2019-05-23T09:12:56.754Z,97541.81
2019-05-23T09:15:31.635Z,97540.52
2019-05-23T09:18:08.705Z,97541.71
2019-05-23T09:20:41.627Z,97544.03
2019-05-23T09:23:14.832Z,97546.73
2019-05-23T09:25:47.097Z,97539.81
2019-05-23T09:28:19.032Z,97539.13
2019-05-23T09:30:50.920Z,97541.84
2019-05-23T09:33:22.399Z,97542.42
2019-05-23T09:35:54.606Z,97548.92
2019-05-23T09:38:27.283Z,97541.95
2019-05-23T09:40:59.467Z,97542.89
2019-05-23T09:43:31.818Z,97535.14
2019-05-23T09:46:04.015Z,97536.94
2019-05-23T09:48:36.212Z,97538.34
2019-05-23T09:51:11.202Z,97527.29
2019-05-23T09:53:47.371Z,97524.95
2019-05-23T09:56:20.091Z,97526.41
2019-05-23T09:58:52.798Z,97526.97
2019-05-23T10:01:25.399Z,97523.56
2019-05-23T10:03:59.296Z,97527.59
2019-05-23T10:06:32.532Z,97521.46
2019-05-23T10:09:08.176Z,97518.52
2019-05-23T10:11:42.492Z,97514.42
2019-05-23T10:14:19.180Z,97513.88
2019-05-23T10:16:52.057Z,97502.98
2019-05-23T10:19:24.132Z,97502.54
2019-05-23T10:21:56.540Z,97513.22
2019-05-23T10:24:28.593Z,97506.57
2019-05-23T10:27:00.299Z,97512.55
2019-05-23T10:29:32.390Z,97516.56
2019-05-23T10:32:05.989Z,97510.16
2019-05-23T10:34:39.904Z,97516.09
2019-05-23T10:37:13.104Z,97514.66
2019-05-23T10:39:48.984Z,97514.20
2019-05-23T10:42:20.714Z,97507.90
2019-05-23T10:44:52.355Z,97512.06
2019-05-23T10:47:24.527Z,97502.31
2019-05-23T10:49:56.710Z,97502.74
2019-05-23T10:52:30.939Z,97497.23
2019-05-23T10:55:02.477Z,97496.41
2019-05-23T10:57:34.410Z,97486.23
2019-05-23T11:00:15.731Z,97487.09
2019-05-23T11:02:47.414Z,97487.44
2019-05-23T11:05:19.013Z,97491.05
2019-05-23T11:07:50.614Z,97486.57
2019-05-23T11:10:23.054Z,97482.36
2019-05-23T11:12:54.690Z,97477.43
2019-05-23T11:15:28.281Z,97472.88
2019-05-23T11:17:59.687Z,97465.52
2019-05-23T11:20:31.870Z,97460.44
2019-05-23T11:23:05.877Z,97466.05
2019-05-23T11:25:39.835Z,97461.00
2019-05-23T11:28:16.220Z,97458.13
2019-05-23T11:30:50.826Z,97453.05
2019-05-23T11:33:23.042Z,97455.84
2019-05-23T11:35:55.264Z,97460.20
2019-05-23T11:38:38.508Z,97452.36
2019-05-23T11:41:19.860Z,97456.37
2019-05-23T11:43:59.564Z,97453.41
2019-05-23T11:46:35.275Z,97445.83
2019-05-23T11:49:07.765Z,97444.27
2019-05-23T11:51:39.928Z,97438.20
2019-05-23T11:54:14.348Z,97436.42
2019-05-23T11:56:46.583Z,97434.67
2019-05-23T11:59:18.031Z,97435.96
2019-05-23T12:01:51.784Z,97425.76
2019-05-23T12:04:25.221Z,97428.70
2019-05-23T12:06:59.704Z,97427.94
2019-05-23T12:09:31.157Z,97428.66
2019-05-23T12:12:05.232Z,97426.81
2019-05-23T12:14:38.490Z,97429.52
2019-05-23T12:17:13.258Z,97426.44
2019-05-23T12:19:59.888Z,97423.36
2019-05-23T12:25:22.733Z,97432.16
2019-05-23T12:33:34.325Z,97421.57
2019-05-23T12:39:37.744Z,97420.99
2019-05-23T12:42:43.721Z,97413.62
2019-05-23T12:45:16.965Z,97413.07
2019-05-23T12:47:50.162Z,97407.38
2019-05-23T12:50:30.203Z,97414.72
2019-05-23T12:53:01.792Z,97404.55
2019-05-23T12:55:33.870Z,97400.13
2019-05-23T12:58:13.803Z,97398.06
2019-05-23T13:00:50.506Z,97394.42
2019-05-23T13:03:23.330Z,97386.47
2019-05-23T13:05:54.793Z,97379.46
2019-05-23T13:08:28.014Z,97376.09
2019-05-23T13:11:00.913Z,97377.81
2019-05-23T13:13:32.259Z,97371.64
2019-05-23T13:16:03.742Z,97367.90
2019-05-23T13:18:35.020Z,97362.11
2019-05-23T13:21:06.578Z,97359.42
2019-05-23T13:23:39.299Z,97360.65
2019-05-23T13:26:12.327Z,97357.31
2019-05-23T13:28:43.842Z,97361.06
2019-05-23T13:31:17.518Z,97349.52
2019-05-23T13:33:48.779Z,97353.33
2019-05-23T13:36:22.009Z,97356.16
2019-05-23T13:38:53.663Z,97355.74
2019-05-23T13:41:25.728Z,97355.84
2019-05-23T13:43:57.898Z,97355.52
2019-05-23T13:46:29.265Z,97363.11
2019-05-23T13:49:02.185Z,97364.74
2019-05-23T13:51:33.682Z,97359.91
2019-05-23T13:54:05.392Z,97363.55
2019-05-23T13:56:37.902Z,97364.70
2019-05-23T13:59:09.154Z,97367.59
2019-05-23T14:01:40.830Z,97365.00
2019-05-23T14:04:12.619Z,97360.75
2019-05-23T14:10:17.056Z,97359.73
2019-05-23T14:12:49.029Z,97375.28
2019-05-23T14:15:21.895Z,97367.03
2019-05-23T14:17:53.669Z,97350.45
2019-05-23T14:20:25.789Z,97361.70
2019-05-23T14:23:02.838Z,97352.67
2019-05-23T14:25:34.240Z,97354.33
2019-05-23T14:28:12.465Z,97369.56
2019-05-23T14:30:45.483Z,97372.97
2019-05-23T14:36:24.231Z,97387.50
2019-05-23T14:38:57.282Z,97409.72
2019-05-23T14:41:44.272Z,97408.44
2019-05-23T14:44:04.325Z,97401.17
2019-05-23T14:46:39.863Z,97396.27
2019-05-23T14:49:13.003Z,97394.29
2019-05-23T14:51:45.987Z,97395.11
2019-05-23T14:54:33.542Z,97392.17
2019-05-23T14:57:07.067Z,97392.76
2019-05-23T14:59:39.054Z,97395.42
2019-05-23T15:02:12.004Z,97396.17
2019-05-23T15:04:43.281Z,97395.47
2019-05-23T15:07:14.796Z,97375.48
2019-05-23T15:09:48.113Z,97372.70
2019-05-23T15:12:19.877Z,97366.49
2019-05-23T15:14:51.285Z,97377.20
2019-05-23T15:17:22.664Z,97370.67
2019-05-23T15:19:53.952Z,97371.77
2019-05-23T15:22:25.495Z,97370.80
2019-05-23T15:24:56.704Z,97362.45
2019-05-23T15:27:28.093Z,97356.31
2019-05-23T15:29:59.348Z,97360.27
2019-05-23T15:32:30.614Z,97359.12
2019-05-23T15:35:02.054Z,97343.76
2019-05-23T15:37:34.151Z,97355.27
2019-05-23T15:40:40.347Z,97356.89
2019-05-23T15:43:19.104Z,97359.23
2019-05-23T15:45:51.010Z,97368.92
2019-05-23T15:48:23.130Z,97371.37
2019-05-23T15:50:54.683Z,97375.41
2019-05-23T15:53:28.360Z,97376.58
2019-05-23T15:56:26.835Z,97368.34
2019-05-23T15:59:00.541Z,97373.56
2019-05-23T16:01:33.776Z,97369.70
2019-05-23T16:04:16.245Z,97366.38
2019-05-23T16:06:47.875Z,97357.70
2019-05-23T16:09:29.264Z,97366.82
2019-05-23T16:11:55.029Z,97360.91
2019-05-23T16:14:26.993Z,97359.95
2019-05-23T16:16:58.844Z,97361.92
2019-05-23T16:19:30.494Z,97367.95
2019-05-23T16:22:01.929Z,97365.77
2019-05-23T16:24:34.056Z,97368.31
2019-05-23T16:27:06.672Z,97367.23
2019-05-23T16:29:38.620Z,97368.92
2019-05-23T16:32:10.055Z,97371.02
2019-05-23T16:34:41.493Z,97369.02
2019-05-23T16:37:12.934Z,97362.55
2019-05-23T16:39:48.280Z,97371.17
2019-05-23T16:42:18.651Z,97370.14
2019-05-23T16:45:38.616Z,97366.94
2019-05-23T16:48:18.162Z,97369.41
2019-05-23T16:50:49.676Z,97370.50
2019-05-23T16:53:22.048Z,97375.38
2019-05-23T16:56:08.773Z,97373.58
2019-05-23T16:59:02.974Z,97373.09
2019-05-23T17:01:36.919Z,97375.80
2019-05-23T17:04:10.627Z,97375.27
2019-05-23T17:06:48.243Z,97376.59
2019-05-23T17:09:19.367Z,97375.98
2019-05-23T17:12:08.794Z,97369.69
2019-05-23T17:14:44.920Z,97377.55
2019-05-23T17:17:57.117Z,97372.81
2019-05-23T17:22:03.023Z,97373.05
2019-05-23T17:23:12.565Z,97378.00
2019-05-23T17:25:59.199Z,97379.72
2019-05-23T17:28:50.650Z,97385.92
2019-05-23T17:31:28.977Z,97393.81
2019-05-23T17:36:53.008Z,97391.47
2019-05-23T17:39:31.977Z,97393.63
2019-05-23T17:47:56.309Z,97411.23
2019-05-23T17:50:34.365Z,97402.28
2019-05-23T17:53:04.958Z,97395.44
2019-05-23T17:55:38.172Z,97400.69
2019-05-23T17:58:10.491Z,97396.45
2019-05-23T18:00:43.849Z,97393.91
2019-05-23T18:03:18.235Z,97392.77
2019-05-23T18:05:51.207Z,97388.58
2019-05-23T18:08:23.766Z,97393.14
2019-05-23T18:10:57.265Z,97398.34
2019-05-23T18:13:29.639Z,97398.80
2019-05-23T18:16:03.019Z,97400.23
2019-05-23T18:18:34.909Z,97400.84
2019-05-23T18:21:08.846Z,97405.00
2019-05-23T18:23:41.568Z,97414.11
2019-05-23T18:26:19.468Z,97414.94
2019-05-23T18:28:51.927Z,97414.73
2019-05-23T18:31:29.117Z,97412.58
2019-05-23T18:34:02.504Z,97413.74
2019-05-23T18:36:37.314Z,97415.82
2019-05-23T18:39:12.668Z,97416.61
2019-05-23T18:41:45.902Z,97412.20
2019-05-23T18:44:20.439Z,97415.36
2019-05-23T18:46:54.411Z,97419.09
2019-05-23T18:49:30.537Z,97411.56
2019-05-23T18:52:03.526Z,97411.47
2019-05-23T18:54:39.392Z,97415.03
2019-05-23T18:57:12.809Z,97422.42
2019-05-23T18:59:44.613Z,97427.28
2019-05-23T19:02:17.106Z,97428.03
2019-05-23T19:04:49.275Z,97423.36
2019-05-23T19:07:21.495Z,97426.13
2019-05-23T19:09:55.103Z,97431.84
2019-05-23T19:12:28.852Z,97432.44
2019-05-23T19:15:03.784Z,97427.59
2019-05-23T19:17:37.376Z,97435.75
2019-05-23T19:20:12.347Z,97427.98
2019-05-23T19:22:48.774Z,97431.83
2019-05-23T19:25:23.484Z,97436.56
2019-05-23T19:27:56.710Z,97434.31
2019-05-23T19:30:29.521Z,97439.20
2019-05-23T19:33:02.841Z,97440.78
2019-05-23T19:35:37.443Z,97440.02
2019-05-23T19:38:11.424Z,97445.33
2019-05-23T19:40:46.294Z,97447.76
2019-05-23T19:43:21.036Z,97445.41
2019-05-23T19:45:55.337Z,97453.97
2019-05-23T19:48:28.775Z,97445.49
2019-05-23T19:51:02.566Z,97450.55
2019-05-23T19:53:37.156Z,97455.30
2019-05-23T19:56:10.853Z,97451.85
2019-05-23T19:58:44.170Z,97460.41
2019-05-23T20:01:16.598Z,97456.48
2019-05-23T20:03:49.772Z,97458.64
2019-05-23T20:06:22.039Z,97450.94
2019-05-23T20:08:56.241Z,97454.13
2019-05-23T20:11:30.206Z,97462.63
2019-05-23T20:14:03.501Z,97455.94
2019-05-23T20:16:36.689Z,97458.36
2019-05-23T20:19:09.452Z,97458.80
2019-05-23T20:21:43.146Z,97457.11
2019-05-23T20:24:14.750Z,97448.06
2019-05-23T20:26:47.052Z,97455.50
2019-05-23T20:29:18.478Z,97453.28
2019-05-23T20:31:56.607Z,97458.98
2019-05-23T20:34:48.116Z,97457.27
2019-05-23T20:37:52.729Z,97449.53
2019-05-23T20:40:53.037Z,97445.37
2019-05-23T20:43:28.771Z,97450.42
2019-05-23T20:46:00.285Z,97449.91
2019-05-23T20:48:36.600Z,97445.23
2019-05-23T20:51:27.833Z,97449.02
2019-05-23T20:54:05.153Z,97447.52
2019-05-23T20:56:45.497Z,97447.52
2019-05-23T20:59:23.467Z,97445.91
2019-05-23T21:02:22.639Z,97444.53
2019-05-23T21:05:12.626Z,97441.70
2019-05-23T21:08:10.985Z,97439.67
2019-05-23T21:10:56.835Z,97447.16
2019-05-23T21:13:42.123Z,97445.08
2019-05-23T21:16:26.560Z,97446.17
2019-05-23T21:19:03.082Z,97444.08
2019-05-23T21:21:39.796Z,97445.41
2019-05-23T21:24:40.216Z,97449.38
2019-05-23T21:27:23.090Z,97449.93
2019-05-23T21:30:11.312Z,97447.24
2019-05-23T21:32:52.354Z,97450.97
2019-05-23T21:35:34.033Z,97452.02
2019-05-23T21:38:25.450Z,97444.59
2019-05-23T21:41:04.180Z,97441.94
2019-05-23T21:43:36.631Z,97445.05
2019-05-23T21:46:09.282Z,97447.69
2019-05-23T21:48:41.525Z,97445.55
2019-05-23T21:51:17.303Z,97448.77
2019-05-23T21:53:48.995Z,97453.55
2019-05-23T21:56:28.844Z,97453.27
2019-05-23T21:59:01.123Z,97449.83
2019-05-23T22:01:44.317Z,97459.44
2019-05-23T22:04:28.047Z,97452.80
2019-05-23T22:07:04.048Z,97456.55
2019-05-23T22:09:36.485Z,97465.70
2019-05-23T22:12:10.209Z,97458.05
2019-05-23T22:14:43.621Z,97462.16
2019-05-23T22:17:18.521Z,97458.77
2019-05-23T22:19:51.300Z,97459.31
2019-05-23T22:22:24.803Z,97452.97
2019-05-23T22:24:59.437Z,97457.22
2019-05-23T22:27:50.061Z,97462.50
2019-05-23T22:30:36.222Z,97464.62
2019-05-23T22:33:10.621Z,97470.64
2019-05-23T22:35:43.017Z,97464.02
2019-05-23T22:38:15.152Z,97461.97
2019-05-23T22:40:54.412Z,97452.44
2019-05-23T22:43:31.728Z,97458.01
2019-05-23T22:46:02.232Z,97455.61
2019-05-23T22:48:37.470Z,97458.47
2019-05-23T22:51:21.526Z,97457.07
2019-05-23T22:53:59.848Z,97456.31
2019-05-23T22:56:44.997Z,97455.79
2019-05-23T22:59:26.517Z,97458.24
2019-05-23T23:02:00.258Z,97451.61
2019-05-23T23:04:32.711Z,97458.53
2019-05-23T23:07:04.737Z,97459.06
2019-05-23T23:09:36.862Z,97458.47
2019-05-23T23:12:10.703Z,97458.95
2019-05-23T23:14:43.050Z,97453.69
2019-05-23T23:17:15.477Z,97455.79
2019-05-23T23:19:47.610Z,97453.96
2019-05-23T23:22:21.332Z,97447.37
2019-05-23T23:24:57.611Z,97450.36
2019-05-23T23:27:34.378Z,97448.47
2019-05-23T23:30:13.612Z,97453.93
2019-05-23T23:32:49.257Z,97449.36
2019-05-23T23:35:21.126Z,97442.49
2019-05-23T23:37:53.022Z,97451.16
2019-05-23T23:40:26.243Z,97449.13
2019-05-23T23:43:00.076Z,97455.22
2019-05-23T23:45:50.836Z,97449.98
2019-05-23T23:48:40.792Z,97443.21
2019-05-23T23:51:30.031Z,97446.16
2019-05-23T23:54:19.098Z,97452.69
2019-05-23T23:57:09.514Z,97448.50
2019-05-23T23:59:40.379Z,97448.98
